Clarkridge, AR

6:20 AM CST on February 27, 2015 (GMT -0600)
High Ridge | Change Station
CLOSE
Current Station
Personal Weather Station
Location: Midway-Lakeview, AR
Elevation: 900 ft
Nearby Weather Stations

Elev 900 ft 36.39 °N, 92.49 °W | Updated 9 seconds ago

Clear
Clear
10.8 °F
Feels Like 3 °F
N
4.4
Wind Variable Wind from NNE
Gusts 8.7 mph

Today
High -- | Low -- °F
--% Chance of Precip.
Yesterday
High -- | Low -- °F
Precip. -- in
6:42 AM 6:01 PM
Waxing Gibbous, 68% visible
Pressure 30.58 in
Visibility 10.0 miles
Clouds Clear
Windchill 3 °F
Dew Point -4 °F
Humidity 51%
Rainfall 0.00 in
Snow Depth Not available.
UV 0 out of 12
Pollen .40 out of 12
Air Quality Not available.
Flu Activity Not available.
METAR KBPK 271153Z AUTO VRB03KT 10SM CLR M12/M17 A3053 RMK AO2 SLP353 T11221167 11083 21122 51010

More Conditions Fewer Conditions

Pressure 30.58 in
Visibility 10.0 miles
Clouds Clear
Windchill 3 °F
Dew Point -4 °F
Humidity 51%
Rainfall 0.00 in
Snow Depth Not available.
UV 0 out of 12
Pollen .40 out of 12
Air Quality Not available.
Flu Activity Not available.
METAR KBPK 271153Z AUTO VRB03KT 10SM CLR M12/M17 A3053 RMK AO2 SLP353 T11221167 11083 21122 51010

More Conditions Fewer Conditions

10-Day Weather Forecast

Almanac

Astronomy

Feb. 27, 2015 Rise Set
Actual Time
Civil Twilight
Nautical Twilight
Astronomical Twilight
Moon
Length of Visible Light
Length of Day
Tomorrow will be .
, % of the Moon is Illuminated

Today's Extremes

State Highs State Lows

Community

WunderPhotos

Upload Photos

1,800,663 photos uploaded!

WunderBlogs® & News

Nearby

Air Quality

  Air Quality AQ Index Pollutant
Not available.

Snow Depth

Station Depth Elevation

Earthquake Activity

City Distance Mag. Time & Date
Minimum magnitude displayed is 2.5.

Coastal Water Temperatures

Place Temperature

Nearby Weather Stations